sensor_id;sensor_type;location;lat;lon;timestamp;temperature;humidity
17364;DHT22;8799;43.594;13.526;2023-03-19T00:01:09;18.60;95.80
17364;DHT22;8799;43.594;13.526;2023-03-19T00:03:37;18.60;95.90
17364;DHT22;8799;43.594;13.526;2023-03-19T00:06:06;18.60;95.90
17364;DHT22;8799;43.594;13.526;2023-03-19T00:08:34;18.60;95.90
17364;DHT22;8799;43.594;13.526;2023-03-19T00:11:05;18.60;96.00
17364;DHT22;8799;43.594;13.526;2023-03-19T00:13:33;18.60;96.00
17364;DHT22;8799;43.594;13.526;2023-03-19T00:16:04;18.60;96.10
17364;DHT22;8799;43.594;13.526;2023-03-19T00:18:32;18.60;96.10
17364;DHT22;8799;43.594;13.526;2023-03-19T00:21:00;18.60;96.10
17364;DHT22;8799;43.594;13.526;2023-03-19T00:23:28;18.50;96.20
17364;DHT22;8799;43.594;13.526;2023-03-19T00:25:56;18.60;96.20
17364;DHT22;8799;43.594;13.526;2023-03-19T00:28:23;18.50;96.20
17364;DHT22;8799;43.594;13.526;2023-03-19T00:30:51;18.50;96.20
17364;DHT22;8799;43.594;13.526;2023-03-19T00:33:21;18.50;96.20
17364;DHT22;8799;43.594;13.526;2023-03-19T00:35:51;18.50;96.30
17364;DHT22;8799;43.594;13.526;2023-03-19T00:38:19;18.50;96.40
17364;DHT22;8799;43.594;13.526;2023-03-19T00:40:47;18.50;96.40
17364;DHT22;8799;43.594;13.526;2023-03-19T00:43:15;18.50;96.40
17364;DHT22;8799;43.594;13.526;2023-03-19T00:45:43;18.50;96.40
17364;DHT22;8799;43.594;13.526;2023-03-19T00:48:10;18.50;96.40
17364;DHT22;8799;43.594;13.526;2023-03-19T00:50:40;18.50;96.40
17364;DHT22;8799;43.594;13.526;2023-03-19T00:53:08;18.50;96.40
17364;DHT22;8799;43.594;13.526;2023-03-19T00:55:36;18.50;96.50
17364;DHT22;8799;43.594;13.526;2023-03-19T00:58:04;18.50;96.50
17364;DHT22;8799;43.594;13.526;2023-03-19T01:00:33;18.50;96.50
17364;DHT22;8799;43.594;13.526;2023-03-19T01:03:01;18.50;96.50
17364;DHT22;8799;43.594;13.526;2023-03-19T01:05:30;18.50;96.50
17364;DHT22;8799;43.594;13.526;2023-03-19T01:07:59;18.50;96.60
17364;DHT22;8799;43.594;13.526;2023-03-19T01:10:27;18.50;96.60
17364;DHT22;8799;43.594;13.526;2023-03-19T01:12:55;18.50;96.70
17364;DHT22;8799;43.594;13.526;2023-03-19T01:15:24;18.50;96.60
17364;DHT22;8799;43.594;13.526;2023-03-19T01:17:52;18.50;96.70
17364;DHT22;8799;43.594;13.526;2023-03-19T01:20:20;18.50;96.70
17364;DHT22;8799;43.594;13.526;2023-03-19T01:22:49;18.50;96.70
17364;DHT22;8799;43.594;13.526;2023-03-19T01:25:19;18.50;96.80
17364;DHT22;8799;43.594;13.526;2023-03-19T01:27:47;18.50;96.80
17364;DHT22;8799;43.594;13.526;2023-03-19T01:30:15;18.50;96.90
17364;DHT22;8799;43.594;13.526;2023-03-19T01:32:44;18.50;97.00
17364;DHT22;8799;43.594;13.526;2023-03-19T01:35:12;18.40;97.00
17364;DHT22;8799;43.594;13.526;2023-03-19T01:37:42;18.40;97.00
17364;DHT22;8799;43.594;13.526;2023-03-19T01:40:12;18.50;97.20
17364;DHT22;8799;43.594;13.526;2023-03-19T01:42:56;18.40;97.20
17364;DHT22;8799;43.594;13.526;2023-03-19T01:45:33;18.40;97.30
17364;DHT22;8799;43.594;13.526;2023-03-19T01:48:01;18.40;97.40
17364;DHT22;8799;43.594;13.526;2023-03-19T01:50:36;18.40;97.40
17364;DHT22;8799;43.594;13.526;2023-03-19T01:53:07;18.40;97.50
17364;DHT22;8799;43.594;13.526;2023-03-19T01:55:36;18.40;97.50
17364;DHT22;8799;43.594;13.526;2023-03-19T01:58:06;18.40;97.60
17364;DHT22;8799;43.594;13.526;2023-03-19T02:00:34;18.40;97.70
17364;DHT22;8799;43.594;13.526;2023-03-19T02:03:05;18.40;97.80
17364;DHT22;8799;43.594;13.526;2023-03-19T02:05:34;18.40;97.80
17364;DHT22;8799;43.594;13.526;2023-03-19T02:08:05;18.40;97.90
17364;DHT22;8799;43.594;13.526;2023-03-19T02:10:33;18.40;98.10
17364;DHT22;8799;43.594;13.526;2023-03-19T02:13:04;18.40;98.20
17364;DHT22;8799;43.594;13.526;2023-03-19T02:15:33;18.40;98.30
17364;DHT22;8799;43.594;13.526;2023-03-19T02:18:01;18.40;98.40
17364;DHT22;8799;43.594;13.526;2023-03-19T02:20:31;18.40;98.40
17364;DHT22;8799;43.594;13.526;2023-03-19T02:23:07;18.40;98.40
17364;DHT22;8799;43.594;13.526;2023-03-19T02:28:18;18.40;98.50
17364;DHT22;8799;43.594;13.526;2023-03-19T02:30:47;18.40;98.60
17364;DHT22;8799;43.594;13.526;2023-03-19T02:33:17;18.40;98.60
17364;DHT22;8799;43.594;13.526;2023-03-19T02:35:47;18.40;98.60
17364;DHT22;8799;43.594;13.526;2023-03-19T02:38:15;18.40;98.70
17364;DHT22;8799;43.594;13.526;2023-03-19T02:40:49;18.40;98.60
17364;DHT22;8799;43.594;13.526;2023-03-19T02:43:21;18.40;98.80
17364;DHT22;8799;43.594;13.526;2023-03-19T02:45:49;18.40;98.70
17364;DHT22;8799;43.594;13.526;2023-03-19T02:48:17;18.40;98.80
17364;DHT22;8799;43.594;13.526;2023-03-19T02:50:46;18.40;99.00
17364;DHT22;8799;43.594;13.526;2023-03-19T02:53:14;18.40;99.10
17364;DHT22;8799;43.594;13.526;2023-03-19T02:55:42;18.40;99.10
17364;DHT22;8799;43.594;13.526;2023-03-19T02:58:10;18.40;99.10
17364;DHT22;8799;43.594;13.526;2023-03-19T03:00:40;18.40;99.10
17364;DHT22;8799;43.594;13.526;2023-03-19T03:03:08;18.30;99.20
17364;DHT22;8799;43.594;13.526;2023-03-19T03:05:35;18.30;99.00
17364;DHT22;8799;43.594;13.526;2023-03-19T03:08:03;18.30;99.00
17364;DHT22;8799;43.594;13.526;2023-03-19T03:10:32;18.30;99.10
17364;DHT22;8799;43.594;13.526;2023-03-19T03:13:00;18.30;99.00
17364;DHT22;8799;43.594;13.526;2023-03-19T03:15:28;18.30;99.00
17364;DHT22;8799;43.594;13.526;2023-03-19T03:17:58;18.30;99.00
17364;DHT22;8799;43.594;13.526;2023-03-19T03:20:26;18.30;99.20
17364;DHT22;8799;43.594;13.526;2023-03-19T03:22:53;18.30;99.20
17364;DHT22;8799;43.594;13.526;2023-03-19T03:25:22;18.30;99.20
17364;DHT22;8799;43.594;13.526;2023-03-19T03:27:50;18.20;99.20
17364;DHT22;8799;43.594;13.526;2023-03-19T03:30:18;18.30;99.30
17364;DHT22;8799;43.594;13.526;2023-03-19T03:32:45;18.20;99.20
17364;DHT22;8799;43.594;13.526;2023-03-19T03:35:15;18.30;99.30
17364;DHT22;8799;43.594;13.526;2023-03-19T03:37:46;18.30;99.30
17364;DHT22;8799;43.594;13.526;2023-03-19T03:40:14;18.30;99.30
17364;DHT22;8799;43.594;13.526;2023-03-19T03:42:43;18.30;99.30
17364;DHT22;8799;43.594;13.526;2023-03-19T03:45:11;18.30;99.30
17364;DHT22;8799;43.594;13.526;2023-03-19T03:47:39;18.20;99.20
17364;DHT22;8799;43.594;13.526;2023-03-19T03:50:07;18.20;99.20
17364;DHT22;8799;43.594;13.526;2023-03-19T03:52:37;18.20;99.20
17364;DHT22;8799;43.594;13.526;2023-03-19T03:55:06;18.20;99.20
17364;DHT22;8799;43.594;13.526;2023-03-19T03:57:35;18.20;99.20
17364;DHT22;8799;43.594;13.526;2023-03-19T04:00:04;18.20;99.20
17364;DHT22;8799;43.594;13.526;2023-03-19T04:02:31;18.20;99.20
17364;DHT22;8799;43.594;13.526;2023-03-19T04:04:58;18.10;99.20
17364;DHT22;8799;43.594;13.526;2023-03-19T04:07:27;18.10;99.30
17364;DHT22;8799;43.594;13.526;2023-03-19T04:09:57;18.10;99.20
17364;DHT22;8799;43.594;13.526;2023-03-19T04:12:25;18.20;99.30
17364;DHT22;8799;43.594;13.526;2023-03-19T04:14:53;18.10;99.30
17364;DHT22;8799;43.594;13.526;2023-03-19T04:17:21;18.10;99.20
17364;DHT22;8799;43.594;13.526;2023-03-19T04:19:48;18.10;99.20
17364;DHT22;8799;43.594;13.526;2023-03-19T04:22:16;18.10;99.20
17364;DHT22;8799;43.594;13.526;2023-03-19T04:24:45;18.10;99.10
17364;DHT22;8799;43.594;13.526;2023-03-19T04:27:15;18.10;99.00
17364;DHT22;8799;43.594;13.526;2023-03-19T04:29:43;18.10;99.00
17364;DHT22;8799;43.594;13.526;2023-03-19T04:32:11;18.10;98.90
17364;DHT22;8799;43.594;13.526;2023-03-19T04:34:39;18.10;98.90
17364;DHT22;8799;43.594;13.526;2023-03-19T04:37:07;18.10;98.90
17364;DHT22;8799;43.594;13.526;2023-03-19T04:39:36;18.10;98.80
17364;DHT22;8799;43.594;13.526;2023-03-19T04:42:04;18.10;98.90
17364;DHT22;8799;43.594;13.526;2023-03-19T04:44:33;18.10;98.80
17364;DHT22;8799;43.594;13.526;2023-03-19T04:47:02;18.10;98.80
17364;DHT22;8799;43.594;13.526;2023-03-19T04:49:30;18.10;98.80
17364;DHT22;8799;43.594;13.526;2023-03-19T04:51:58;18.10;98.80
17364;DHT22;8799;43.594;13.526;2023-03-19T04:54:26;18.10;98.90
17364;DHT22;8799;43.594;13.526;2023-03-19T04:56:54;18.00;98.70
17364;DHT22;8799;43.594;13.526;2023-03-19T04:59:22;18.00;98.60
17364;DHT22;8799;43.594;13.526;2023-03-19T05:01:52;18.00;98.60
17364;DHT22;8799;43.594;13.526;2023-03-19T05:04:19;18.00;98.60
17364;DHT22;8799;43.594;13.526;2023-03-19T05:06:47;18.10;98.70
17364;DHT22;8799;43.594;13.526;2023-03-19T05:09:15;18.00;98.70
17364;DHT22;8799;43.594;13.526;2023-03-19T05:11:43;18.00;98.40
17364;DHT22;8799;43.594;13.526;2023-03-19T05:14:11;18.00;98.40
17364;DHT22;8799;43.594;13.526;2023-03-19T05:16:38;18.00;98.40
17364;DHT22;8799;43.594;13.526;2023-03-19T05:19:07;18.00;98.50
17364;DHT22;8799;43.594;13.526;2023-03-19T05:21:36;18.00;98.50
17364;DHT22;8799;43.594;13.526;2023-03-19T05:24:05;18.00;98.40
17364;DHT22;8799;43.594;13.526;2023-03-19T05:26:33;18.00;98.60
17364;DHT22;8799;43.594;13.526;2023-03-19T05:29:02;18.00;98.60
17364;DHT22;8799;43.594;13.526;2023-03-19T05:31:30;18.00;98.70
17364;DHT22;8799;43.594;13.526;2023-03-19T05:33:58;18.00;98.80
17364;DHT22;8799;43.594;13.526;2023-03-19T05:36:27;18.00;98.80
17364;DHT22;8799;43.594;13.526;2023-03-19T05:38:55;18.00;98.80
17364;DHT22;8799;43.594;13.526;2023-03-19T05:41:23;17.90;98.80
17364;DHT22;8799;43.594;13.526;2023-03-19T05:43:51;18.00;98.90
17364;DHT22;8799;43.594;13.526;2023-03-19T05:46:19;18.00;98.80
17364;DHT22;8799;43.594;13.526;2023-03-19T05:48:46;17.90;98.80
17364;DHT22;8799;43.594;13.526;2023-03-19T05:51:15;18.00;98.90
17364;DHT22;8799;43.594;13.526;2023-03-19T05:53:45;17.90;98.90
17364;DHT22;8799;43.594;13.526;2023-03-19T05:56:13;17.90;98.90
17364;DHT22;8799;43.594;13.526;2023-03-19T05:58:41;17.90;98.90
17364;DHT22;8799;43.594;13.526;2023-03-19T06:01:09;17.90;98.80
17364;DHT22;8799;43.594;13.526;2023-03-19T06:03:37;17.90;98.70
17364;DHT22;8799;43.594;13.526;2023-03-19T06:06:05;17.90;98.70
17364;DHT22;8799;43.594;13.526;2023-03-19T06:08:33;17.90;98.60
17364;DHT22;8799;43.594;13.526;2023-03-19T06:11:04;17.90;98.50
17364;DHT22;8799;43.594;13.526;2023-03-19T06:13:32;17.90;98.50
17364;DHT22;8799;43.594;13.526;2023-03-19T06:16:00;17.90;98.60
17364;DHT22;8799;43.594;13.526;2023-03-19T06:18:28;17.90;98.70
17364;DHT22;8799;43.594;13.526;2023-03-19T06:20:57;17.90;98.90
17364;DHT22;8799;43.594;13.526;2023-03-19T06:23:25;17.90;98.90
17364;DHT22;8799;43.594;13.526;2023-03-19T06:25:53;17.90;98.70
17364;DHT22;8799;43.594;13.526;2023-03-19T06:28:23;17.90;98.50
17364;DHT22;8799;43.594;13.526;2023-03-19T06:30:53;17.90;98.10
17364;DHT22;8799;43.594;13.526;2023-03-19T06:33:21;17.90;97.70
17364;DHT22;8799;43.594;13.526;2023-03-19T06:35:52;17.90;97.60
17364;DHT22;8799;43.594;13.526;2023-03-19T06:38:20;17.90;97.40
17364;DHT22;8799;43.594;13.526;2023-03-19T06:40:48;17.90;97.30
17364;DHT22;8799;43.594;13.526;2023-03-19T06:43:16;17.90;97.20
17364;DHT22;8799;43.594;13.526;2023-03-19T06:45:46;17.80;97.00
17364;DHT22;8799;43.594;13.526;2023-03-19T06:48:15;17.80;96.90
17364;DHT22;8799;43.594;13.526;2023-03-19T06:50:44;17.80;96.90
17364;DHT22;8799;43.594;13.526;2023-03-19T06:53:12;17.80;96.80
17364;DHT22;8799;43.594;13.526;2023-03-19T06:55:40;17.80;96.80
17364;DHT22;8799;43.594;13.526;2023-03-19T06:58:08;17.80;96.80
17364;DHT22;8799;43.594;13.526;2023-03-19T07:00:36;17.80;96.80
17364;DHT22;8799;43.594;13.526;2023-03-19T07:03:06;17.80;96.60
17364;DHT22;8799;43.594;13.526;2023-03-19T07:05:34;17.80;96.70
17364;DHT22;8799;43.594;13.526;2023-03-19T07:08:02;17.80;96.70
17364;DHT22;8799;43.594;13.526;2023-03-19T07:10:36;17.80;96.70
17364;DHT22;8799;43.594;13.526;2023-03-19T07:13:04;17.80;96.50
17364;DHT22;8799;43.594;13.526;2023-03-19T07:15:32;17.80;96.40
17364;DHT22;8799;43.594;13.526;2023-03-19T07:18:00;17.80;96.00
17364;DHT22;8799;43.594;13.526;2023-03-19T07:20:30;17.80;95.60
17364;DHT22;8799;43.594;13.526;2023-03-19T07:22:58;17.80;95.90
17364;DHT22;8799;43.594;13.526;2023-03-19T07:25:27;17.80;95.80
17364;DHT22;8799;43.594;13.526;2023-03-19T07:27:55;17.70;96.10
17364;DHT22;8799;43.594;13.526;2023-03-19T07:30:32;17.70;95.90
17364;DHT22;8799;43.594;13.526;2023-03-19T07:33:00;17.70;95.60
17364;DHT22;8799;43.594;13.526;2023-03-19T07:35:30;17.70;95.50
17364;DHT22;8799;43.594;13.526;2023-03-19T07:37:59;17.70;95.30
17364;DHT22;8799;43.594;13.526;2023-03-19T07:40:27;17.70;95.50
17364;DHT22;8799;43.594;13.526;2023-03-19T07:42:55;17.70;95.80
17364;DHT22;8799;43.594;13.526;2023-03-19T07:45:23;17.70;96.20
17364;DHT22;8799;43.594;13.526;2023-03-19T07:47:51;17.70;96.50
17364;DHT22;8799;43.594;13.526;2023-03-19T07:50:19;17.80;96.30
17364;DHT22;8799;43.594;13.526;2023-03-19T07:52:49;17.80;96.20
17364;DHT22;8799;43.594;13.526;2023-03-19T07:55:17;17.70;96.00
17364;DHT22;8799;43.594;13.526;2023-03-19T07:57:45;17.70;96.00
17364;DHT22;8799;43.594;13.526;2023-03-19T08:00:15;17.70;96.00
17364;DHT22;8799;43.594;13.526;2023-03-19T08:02:42;17.70;96.00
17364;DHT22;8799;43.594;13.526;2023-03-19T08:05:11;17.70;96.10
17364;DHT22;8799;43.594;13.526;2023-03-19T08:07:39;17.70;96.10
17364;DHT22;8799;43.594;13.526;2023-03-19T08:10:10;17.70;96.10
17364;DHT22;8799;43.594;13.526;2023-03-19T08:12:40;17.70;96.10
17364;DHT22;8799;43.594;13.526;2023-03-19T08:15:10;17.70;96.10
17364;DHT22;8799;43.594;13.526;2023-03-19T08:17:38;17.70;96.20
17364;DHT22;8799;43.594;13.526;2023-03-19T08:20:07;17.70;96.20
17364;DHT22;8799;43.594;13.526;2023-03-19T08:22:36;17.70;95.90
17364;DHT22;8799;43.594;13.526;2023-03-19T08:25:05;17.60;95.60
17364;DHT22;8799;43.594;13.526;2023-03-19T08:27:35;17.70;95.60
17364;DHT22;8799;43.594;13.526;2023-03-19T08:30:04;17.60;95.60
17364;DHT22;8799;43.594;13.526;2023-03-19T08:32:33;17.60;95.70
17364;DHT22;8799;43.594;13.526;2023-03-19T08:35:01;17.60;95.70
17364;DHT22;8799;43.594;13.526;2023-03-19T08:37:28;17.60;95.80
17364;DHT22;8799;43.594;13.526;2023-03-19T08:39:56;17.60;95.80
17364;DHT22;8799;43.594;13.526;2023-03-19T08:42:24;17.60;95.90
17364;DHT22;8799;43.594;13.526;2023-03-19T08:44:54;17.60;96.00
17364;DHT22;8799;43.594;13.526;2023-03-19T08:47:22;17.60;96.00
17364;DHT22;8799;43.594;13.526;2023-03-19T08:49:50;17.60;96.00
17364;DHT22;8799;43.594;13.526;2023-03-19T08:52:18;17.50;96.10
17364;DHT22;8799;43.594;13.526;2023-03-19T08:54:46;17.60;96.10
17364;DHT22;8799;43.594;13.526;2023-03-19T08:57:14;17.50;96.10
17364;DHT22;8799;43.594;13.526;2023-03-19T08:59:42;17.60;96.10
17364;DHT22;8799;43.594;13.526;2023-03-19T09:02:11;17.50;96.10
17364;DHT22;8799;43.594;13.526;2023-03-19T09:04:40;17.50;96.20
17364;DHT22;8799;43.594;13.526;2023-03-19T09:07:07;17.50;96.10
17364;DHT22;8799;43.594;13.526;2023-03-19T09:09:39;17.50;96.10
17364;DHT22;8799;43.594;13.526;2023-03-19T09:12:08;17.50;96.10
17364;DHT22;8799;43.594;13.526;2023-03-19T09:14:37;17.50;96.00
17364;DHT22;8799;43.594;13.526;2023-03-19T09:17:06;17.50;96.00
17364;DHT22;8799;43.594;13.526;2023-03-19T09:19:36;17.50;96.00
17364;DHT22;8799;43.594;13.526;2023-03-19T09:22:04;17.50;96.00
17364;DHT22;8799;43.594;13.526;2023-03-19T09:24:32;17.50;96.00
17364;DHT22;8799;43.594;13.526;2023-03-19T09:27:00;17.50;95.90
17364;DHT22;8799;43.594;13.526;2023-03-19T09:29:28;17.50;95.90
17364;DHT22;8799;43.594;13.526;2023-03-19T09:31:56;17.50;95.80
17364;DHT22;8799;43.594;13.526;2023-03-19T09:34:27;17.50;95.90
17364;DHT22;8799;43.594;13.526;2023-03-19T09:36:57;17.50;95.80
17364;DHT22;8799;43.594;13.526;2023-03-19T09:39:25;17.40;95.60
17364;DHT22;8799;43.594;13.526;2023-03-19T09:42:02;17.40;95.50
17364;DHT22;8799;43.594;13.526;2023-03-19T09:44:34;17.40;95.50
17364;DHT22;8799;43.594;13.526;2023-03-19T09:47:09;17.40;95.50
17364;DHT22;8799;43.594;13.526;2023-03-19T09:49:42;17.40;95.40
17364;DHT22;8799;43.594;13.526;2023-03-19T09:52:19;17.40;95.40
17364;DHT22;8799;43.594;13.526;2023-03-19T09:54:54;17.40;95.30
17364;DHT22;8799;43.594;13.526;2023-03-19T09:57:23;17.40;95.40
17364;DHT22;8799;43.594;13.526;2023-03-19T09:59:50;17.40;95.40
17364;DHT22;8799;43.594;13.526;2023-03-19T10:02:38;17.40;95.30
17364;DHT22;8799;43.594;13.526;2023-03-19T10:05:17;17.40;95.30
17364;DHT22;8799;43.594;13.526;2023-03-19T10:10:49;17.40;95.20
17364;DHT22;8799;43.594;13.526;2023-03-19T10:13:27;17.40;95.20
17364;DHT22;8799;43.594;13.526;2023-03-19T10:15:59;17.40;95.10
17364;DHT22;8799;43.594;13.526;2023-03-19T10:18:29;17.40;95.00
17364;DHT22;8799;43.594;13.526;2023-03-19T10:21:02;17.40;95.00
17364;DHT22;8799;43.594;13.526;2023-03-19T10:23:41;17.40;95.00
17364;DHT22;8799;43.594;13.526;2023-03-19T10:26:16;17.40;94.80
17364;DHT22;8799;43.594;13.526;2023-03-19T10:28:47;17.40;94.70
17364;DHT22;8799;43.594;13.526;2023-03-19T10:31:25;17.40;94.60
17364;DHT22;8799;43.594;13.526;2023-03-19T10:34:05;17.40;94.50
17364;DHT22;8799;43.594;13.526;2023-03-19T10:36:35;17.30;94.60
17364;DHT22;8799;43.594;13.526;2023-03-19T10:39:05;17.40;94.60
17364;DHT22;8799;43.594;13.526;2023-03-19T10:41:45;17.40;94.50
17364;DHT22;8799;43.594;13.526;2023-03-19T10:44:24;17.40;94.50
17364;DHT22;8799;43.594;13.526;2023-03-19T10:46:56;17.40;94.50
17364;DHT22;8799;43.594;13.526;2023-03-19T10:49:24;17.40;94.50
17364;DHT22;8799;43.594;13.526;2023-03-19T10:51:56;17.40;94.60
17364;DHT22;8799;43.594;13.526;2023-03-19T10:54:27;17.40;94.60
17364;DHT22;8799;43.594;13.526;2023-03-19T10:56:57;17.40;94.60
17364;DHT22;8799;43.594;13.526;2023-03-19T10:59:30;17.40;94.70
17364;DHT22;8799;43.594;13.526;2023-03-19T11:02:01;17.40;94.70
17364;DHT22;8799;43.594;13.526;2023-03-19T11:04:29;17.40;94.80
17364;DHT22;8799;43.594;13.526;2023-03-19T11:07:02;17.30;94.90
17364;DHT22;8799;43.594;13.526;2023-03-19T11:09:38;17.30;95.00
17364;DHT22;8799;43.594;13.526;2023-03-19T11:12:16;17.30;95.10
17364;DHT22;8799;43.594;13.526;2023-03-19T11:14:46;17.40;95.20
17364;DHT22;8799;43.594;13.526;2023-03-19T11:17:21;17.40;95.20
17364;DHT22;8799;43.594;13.526;2023-03-19T11:19:52;17.40;95.30
17364;DHT22;8799;43.594;13.526;2023-03-19T11:22:21;17.40;95.30
17364;DHT22;8799;43.594;13.526;2023-03-19T11:24:53;17.40;95.30
17364;DHT22;8799;43.594;13.526;2023-03-19T11:27:29;17.40;95.40
17364;DHT22;8799;43.594;13.526;2023-03-19T11:29:59;17.40;95.40
17364;DHT22;8799;43.594;13.526;2023-03-19T11:33:03;17.40;95.40
17364;DHT22;8799;43.594;13.526;2023-03-19T11:35:37;17.40;95.50
17364;DHT22;8799;43.594;13.526;2023-03-19T11:38:12;17.40;95.40
17364;DHT22;8799;43.594;13.526;2023-03-19T11:40:45;17.40;95.50
17364;DHT22;8799;43.594;13.526;2023-03-19T11:46:41;17.40;95.50
17364;DHT22;8799;43.594;13.526;2023-03-19T11:52:04;17.40;95.50
17364;DHT22;8799;43.594;13.526;2023-03-19T11:54:42;17.40;95.60
17364;DHT22;8799;43.594;13.526;2023-03-19T11:57:17;17.40;95.60
17364;DHT22;8799;43.594;13.526;2023-03-19T12:00:02;17.40;95.70
17364;DHT22;8799;43.594;13.526;2023-03-19T12:02:46;17.40;95.80
17364;DHT22;8799;43.594;13.526;2023-03-19T12:05:20;17.40;96.00
17364;DHT22;8799;43.594;13.526;2023-03-19T12:07:59;17.40;96.30
17364;DHT22;8799;43.594;13.526;2023-03-19T12:10:40;17.40;96.60
17364;DHT22;8799;43.594;13.526;2023-03-19T12:13:19;17.40;97.10
17364;DHT22;8799;43.594;13.526;2023-03-19T12:15:59;17.40;97.40
17364;DHT22;8799;43.594;13.526;2023-03-19T12:18:45;17.40;97.70
17364;DHT22;8799;43.594;13.526;2023-03-19T12:21:21;17.40;98.00
17364;DHT22;8799;43.594;13.526;2023-03-19T12:24:01;17.40;98.20
17364;DHT22;8799;43.594;13.526;2023-03-19T12:26:38;17.40;98.50
17364;DHT22;8799;43.594;13.526;2023-03-19T12:29:20;17.40;98.70
17364;DHT22;8799;43.594;13.526;2023-03-19T12:32:09;17.30;98.90
17364;DHT22;8799;43.594;13.526;2023-03-19T12:34:42;17.30;99.00
17364;DHT22;8799;43.594;13.526;2023-03-19T12:37:18;17.30;99.10
17364;DHT22;8799;43.594;13.526;2023-03-19T12:39:55;17.30;99.30
17364;DHT22;8799;43.594;13.526;2023-03-19T12:42:28;17.30;99.50
17364;DHT22;8799;43.594;13.526;2023-03-19T12:44:58;17.30;99.60
17364;DHT22;8799;43.594;13.526;2023-03-19T12:47:33;17.30;99.70
17364;DHT22;8799;43.594;13.526;2023-03-19T12:50:05;17.30;99.80
17364;DHT22;8799;43.594;13.526;2023-03-19T12:52:36;17.30;99.90
17364;DHT22;8799;43.594;13.526;2023-03-19T12:55:15;17.30;99.90
17364;DHT22;8799;43.594;13.526;2023-03-19T12:57:48;17.30;99.90
17364;DHT22;8799;43.594;13.526;2023-03-19T13:00:21;17.30;99.90
17364;DHT22;8799;43.594;13.526;2023-03-19T13:02:58;17.30;99.90
17364;DHT22;8799;43.594;13.526;2023-03-19T13:05:33;17.30;99.90
17364;DHT22;8799;43.594;13.526;2023-03-19T13:08:05;17.30;99.90
17364;DHT22;8799;43.594;13.526;2023-03-19T13:10:38;17.30;99.90
17364;DHT22;8799;43.594;13.526;2023-03-19T13:13:25;17.30;99.90
17364;DHT22;8799;43.594;13.526;2023-03-19T13:15:59;17.30;99.90
17364;DHT22;8799;43.594;13.526;2023-03-19T13:18:35;17.30;99.90
17364;DHT22;8799;43.594;13.526;2023-03-19T13:21:16;17.30;99.90
17364;DHT22;8799;43.594;13.526;2023-03-19T13:23:49;17.20;99.90
17364;DHT22;8799;43.594;13.526;2023-03-19T13:26:18;17.20;99.90
17364;DHT22;8799;43.594;13.526;2023-03-19T13:28:59;17.20;99.90
17364;DHT22;8799;43.594;13.526;2023-03-19T13:31:33;17.20;99.90
17364;DHT22;8799;43.594;13.526;2023-03-19T13:34:03;17.20;99.90
17364;DHT22;8799;43.594;13.526;2023-03-19T13:36:36;17.20;99.90
17364;DHT22;8799;43.594;13.526;2023-03-19T13:39:12;17.20;99.90
17364;DHT22;8799;43.594;13.526;2023-03-19T13:41:52;17.20;99.90
17364;DHT22;8799;43.594;13.526;2023-03-19T13:44:32;17.20;99.90
17364;DHT22;8799;43.594;13.526;2023-03-19T13:47:02;17.20;99.90
17364;DHT22;8799;43.594;13.526;2023-03-19T13:53:21;17.20;99.90
17364;DHT22;8799;43.594;13.526;2023-03-19T13:55:53;17.20;99.90
17364;DHT22;8799;43.594;13.526;2023-03-19T13:58:25;17.20;99.90
17364;DHT22;8799;43.594;13.526;2023-03-19T14:01:16;17.20;99.90
17364;DHT22;8799;43.594;13.526;2023-03-19T14:04:04;17.30;99.90
17364;DHT22;8799;43.594;13.526;2023-03-19T14:06:38;17.30;99.90
17364;DHT22;8799;43.594;13.526;2023-03-19T14:09:28;17.30;99.90
17364;DHT22;8799;43.594;13.526;2023-03-19T14:12:10;17.30;99.90
17364;DHT22;8799;43.594;13.526;2023-03-19T14:14:43;17.30;99.90
17364;DHT22;8799;43.594;13.526;2023-03-19T14:17:14;17.30;99.90
17364;DHT22;8799;43.594;13.526;2023-03-19T14:19:43;17.30;99.90
17364;DHT22;8799;43.594;13.526;2023-03-19T14:22:19;17.30;99.90
17364;DHT22;8799;43.594;13.526;2023-03-19T14:25:12;17.40;99.90
17364;DHT22;8799;43.594;13.526;2023-03-19T14:27:46;17.40;99.80
17364;DHT22;8799;43.594;13.526;2023-03-19T14:30:26;17.40;99.70
17364;DHT22;8799;43.594;13.526;2023-03-19T14:32:59;17.40;99.60
17364;DHT22;8799;43.594;13.526;2023-03-19T14:35:33;17.40;99.70
17364;DHT22;8799;43.594;13.526;2023-03-19T14:38:10;17.40;99.70
17364;DHT22;8799;43.594;13.526;2023-03-19T14:40:43;17.40;99.60
17364;DHT22;8799;43.594;13.526;2023-03-19T14:43:21;17.40;99.60
17364;DHT22;8799;43.594;13.526;2023-03-19T14:45:58;17.40;99.60
17364;DHT22;8799;43.594;13.526;2023-03-19T14:51:50;17.50;99.70
17364;DHT22;8799;43.594;13.526;2023-03-19T14:54:27;17.50;99.60
17364;DHT22;8799;43.594;13.526;2023-03-19T14:56:56;17.50;99.50
17364;DHT22;8799;43.594;13.526;2023-03-19T14:59:35;17.50;99.50
17364;DHT22;8799;43.594;13.526;2023-03-19T15:02:05;17.50;99.40
17364;DHT22;8799;43.594;13.526;2023-03-19T15:04:43;17.50;99.30
17364;DHT22;8799;43.594;13.526;2023-03-19T15:07:18;17.60;99.40
17364;DHT22;8799;43.594;13.526;2023-03-19T15:09:53;17.50;99.40
17364;DHT22;8799;43.594;13.526;2023-03-19T15:12:44;17.60;99.20
17364;DHT22;8799;43.594;13.526;2023-03-19T15:15:23;17.60;99.10
17364;DHT22;8799;43.594;13.526;2023-03-19T15:17:58;17.60;98.90
17364;DHT22;8799;43.594;13.526;2023-03-19T15:20:31;17.60;98.90
17364;DHT22;8799;43.594;13.526;2023-03-19T15:23:00;17.60;99.00
17364;DHT22;8799;43.594;13.526;2023-03-19T15:25:30;17.60;99.00
17364;DHT22;8799;43.594;13.526;2023-03-19T15:28:05;17.60;99.00
17364;DHT22;8799;43.594;13.526;2023-03-19T15:30:35;17.60;99.10
17364;DHT22;8799;43.594;13.526;2023-03-19T15:33:15;17.60;99.00
17364;DHT22;8799;43.594;13.526;2023-03-19T15:35:43;17.60;98.90
17364;DHT22;8799;43.594;13.526;2023-03-19T15:38:13;17.70;99.00
17364;DHT22;8799;43.594;13.526;2023-03-19T15:40:43;17.70;99.20
17364;DHT22;8799;43.594;13.526;2023-03-19T15:43:12;17.70;99.20
17364;DHT22;8799;43.594;13.526;2023-03-19T15:45:45;17.70;99.30
17364;DHT22;8799;43.594;13.526;2023-03-19T15:48:20;17.70;99.30
17364;DHT22;8799;43.594;13.526;2023-03-19T15:50:50;17.70;99.40
17364;DHT22;8799;43.594;13.526;2023-03-19T15:53:24;17.70;99.30
17364;DHT22;8799;43.594;13.526;2023-03-19T15:55:54;17.70;99.40
17364;DHT22;8799;43.594;13.526;2023-03-19T15:58:24;17.70;99.40
17364;DHT22;8799;43.594;13.526;2023-03-19T16:00:56;17.80;99.40
17364;DHT22;8799;43.594;13.526;2023-03-19T16:03:28;17.70;99.20
17364;DHT22;8799;43.594;13.526;2023-03-19T16:06:00;17.80;99.40
17364;DHT22;8799;43.594;13.526;2023-03-19T16:08:29;17.80;99.40
17364;DHT22;8799;43.594;13.526;2023-03-19T16:11:12;17.80;99.40
17364;DHT22;8799;43.594;13.526;2023-03-19T16:13:45;17.80;99.40